sensor_id;sensor_type;location;lat;lon;timestamp;P1;durP1;ratioP1;P2;durP2;ratioP2
77417;SDS011;66490;51.484;0.026;2023-04-24T00:02:13;33.88;;;19.33;;
77417;SDS011;66490;51.484;0.026;2023-04-24T00:04:57;37.10;;;22.25;;
77417;SDS011;66490;51.484;0.026;2023-04-24T00:07:41;32.93;;;20.07;;
77417;SDS011;66490;51.484;0.026;2023-04-24T00:10:25;34.45;;;21.27;;
77417;SDS011;66490;51.484;0.026;2023-04-24T00:13:09;38.15;;;22.35;;
77417;SDS011;66490;51.484;0.026;2023-04-24T00:15:53;33.97;;;20.52;;
77417;SDS011;66490;51.484;0.026;2023-04-24T00:18:37;34.20;;;20.92;;
77417;SDS011;66490;51.484;0.026;2023-04-24T00:21:21;32.67;;;19.57;;
77417;SDS011;66490;51.484;0.026;2023-04-24T00:24:05;33.83;;;18.92;;
77417;SDS011;66490;51.484;0.026;2023-04-24T00:26:50;32.78;;;19.98;;
77417;SDS011;66490;51.484;0.026;2023-04-24T00:29:34;36.13;;;19.33;;
77417;SDS011;66490;51.484;0.026;2023-04-24T00:32:18;33.47;;;20.65;;
77417;SDS011;66490;51.484;0.026;2023-04-24T00:35:02;35.57;;;20.57;;
77417;SDS011;66490;51.484;0.026;2023-04-24T00:37:46;35.50;;;19.98;;
77417;SDS011;66490;51.484;0.026;2023-04-24T00:40:30;34.15;;;20.58;;
77417;SDS011;66490;51.484;0.026;2023-04-24T00:43:14;31.10;;;18.75;;
77417;SDS011;66490;51.484;0.026;2023-04-24T00:45:58;31.08;;;19.08;;
77417;SDS011;66490;51.484;0.026;2023-04-24T00:48:45;33.97;;;18.80;;
77417;SDS011;66490;51.484;0.026;2023-04-24T00:51:30;30.25;;;18.13;;
77417;SDS011;66490;51.484;0.026;2023-04-24T00:54:16;30.02;;;18.80;;
77417;SDS011;66490;51.484;0.026;2023-04-24T00:57:01;35.60;;;18.90;;
77417;SDS011;66490;51.484;0.026;2023-04-24T00:59:46;29.70;;;18.33;;
77417;SDS011;66490;51.484;0.026;2023-04-24T01:02:30;32.63;;;16.80;;
77417;SDS011;66490;51.484;0.026;2023-04-24T01:05:15;29.70;;;17.27;;
77417;SDS011;66490;51.484;0.026;2023-04-24T01:07:59;30.27;;;17.65;;
77417;SDS011;66490;51.484;0.026;2023-04-24T01:10:43;29.27;;;17.77;;
77417;SDS011;66490;51.484;0.026;2023-04-24T01:13:28;29.88;;;17.35;;
77417;SDS011;66490;51.484;0.026;2023-04-24T01:16:14;29.53;;;15.97;;
77417;SDS011;66490;51.484;0.026;2023-04-24T01:18:59;26.15;;;15.40;;
77417;SDS011;66490;51.484;0.026;2023-04-24T01:21:43;27.08;;;16.08;;
77417;SDS011;66490;51.484;0.026;2023-04-24T01:24:28;30.63;;;16.35;;
77417;SDS011;66490;51.484;0.026;2023-04-24T01:27:12;26.80;;;16.40;;
77417;SDS011;66490;51.484;0.026;2023-04-24T01:29:56;27.20;;;16.47;;
77417;SDS011;66490;51.484;0.026;2023-04-24T01:32:41;28.85;;;15.43;;
77417;SDS011;66490;51.484;0.026;2023-04-24T01:35:28;28.05;;;16.77;;
77417;SDS011;66490;51.484;0.026;2023-04-24T01:38:12;27.27;;;16.15;;
77417;SDS011;66490;51.484;0.026;2023-04-24T01:40:55;26.27;;;15.32;;
77417;SDS011;66490;51.484;0.026;2023-04-24T01:43:39;26.33;;;15.17;;
77417;SDS011;66490;51.484;0.026;2023-04-24T01:46:23;27.48;;;15.98;;
77417;SDS011;66490;51.484;0.026;2023-04-24T01:49:08;31.23;;;16.25;;
77417;SDS011;66490;51.484;0.026;2023-04-24T01:51:55;25.77;;;15.68;;
77417;SDS011;66490;51.484;0.026;2023-04-24T01:54:39;27.13;;;16.42;;
77417;SDS011;66490;51.484;0.026;2023-04-24T01:57:23;25.23;;;15.40;;
77417;SDS011;66490;51.484;0.026;2023-04-24T02:00:07;25.17;;;14.65;;
77417;SDS011;66490;51.484;0.026;2023-04-24T02:02:55;26.83;;;15.93;;
77417;SDS011;66490;51.484;0.026;2023-04-24T02:05:39;25.40;;;14.55;;
77417;SDS011;66490;51.484;0.026;2023-04-24T02:08:23;29.85;;;16.08;;
77417;SDS011;66490;51.484;0.026;2023-04-24T02:11:10;27.93;;;14.97;;
77417;SDS011;66490;51.484;0.026;2023-04-24T02:13:53;27.95;;;15.75;;
77417;SDS011;66490;51.484;0.026;2023-04-24T02:16:37;26.80;;;14.65;;
77417;SDS011;66490;51.484;0.026;2023-04-24T02:19:21;25.27;;;14.70;;
77417;SDS011;66490;51.484;0.026;2023-04-24T02:22:05;24.10;;;14.65;;
77417;SDS011;66490;51.484;0.026;2023-04-24T02:24:49;23.93;;;14.07;;
77417;SDS011;66490;51.484;0.026;2023-04-24T02:27:33;26.17;;;12.88;;
77417;SDS011;66490;51.484;0.026;2023-04-24T02:30:17;26.20;;;14.48;;
77417;SDS011;66490;51.484;0.026;2023-04-24T02:33:01;23.13;;;12.23;;
77417;SDS011;66490;51.484;0.026;2023-04-24T02:35:45;21.27;;;12.60;;
77417;SDS011;66490;51.484;0.026;2023-04-24T02:38:29;21.40;;;12.93;;
77417;SDS011;66490;51.484;0.026;2023-04-24T02:41:13;22.75;;;12.00;;
77417;SDS011;66490;51.484;0.026;2023-04-24T02:43:57;22.80;;;14.20;;
77417;SDS011;66490;51.484;0.026;2023-04-24T02:46:41;22.20;;;11.75;;
77417;SDS011;66490;51.484;0.026;2023-04-24T02:49:25;23.45;;;13.38;;
77417;SDS011;66490;51.484;0.026;2023-04-24T02:52:10;21.57;;;12.67;;
77417;SDS011;66490;51.484;0.026;2023-04-24T02:54:57;26.52;;;13.45;;
77417;SDS011;66490;51.484;0.026;2023-04-24T02:57:41;27.55;;;16.73;;
77417;SDS011;66490;51.484;0.026;2023-04-24T03:00:25;30.27;;;18.20;;
77417;SDS011;66490;51.484;0.026;2023-04-24T03:03:09;31.73;;;18.85;;
77417;SDS011;66490;51.484;0.026;2023-04-24T03:05:56;32.77;;;18.43;;
77417;SDS011;66490;51.484;0.026;2023-04-24T03:08:41;30.80;;;18.15;;
77417;SDS011;66490;51.484;0.026;2023-04-24T03:11:25;34.10;;;18.75;;
77417;SDS011;66490;51.484;0.026;2023-04-24T03:14:09;36.70;;;19.98;;
77417;SDS011;66490;51.484;0.026;2023-04-24T03:16:53;35.30;;;19.88;;
77417;SDS011;66490;51.484;0.026;2023-04-24T03:19:37;35.30;;;19.37;;
77417;SDS011;66490;51.484;0.026;2023-04-24T03:22:21;31.83;;;19.13;;
77417;SDS011;66490;51.484;0.026;2023-04-24T03:25:05;33.45;;;18.50;;
77417;SDS011;66490;51.484;0.026;2023-04-24T03:27:50;34.58;;;20.95;;
77417;SDS011;66490;51.484;0.026;2023-04-24T03:30:34;32.35;;;18.95;;
77417;SDS011;66490;51.484;0.026;2023-04-24T03:33:18;28.97;;;18.10;;
77417;SDS011;66490;51.484;0.026;2023-04-24T03:36:02;35.92;;;19.90;;
77417;SDS011;66490;51.484;0.026;2023-04-24T03:38:46;33.10;;;19.85;;
77417;SDS011;66490;51.484;0.026;2023-04-24T03:41:30;30.33;;;19.15;;
77417;SDS011;66490;51.484;0.026;2023-04-24T03:44:14;35.92;;;20.60;;
77417;SDS011;66490;51.484;0.026;2023-04-24T03:46:59;32.70;;;18.77;;
77417;SDS011;66490;51.484;0.026;2023-04-24T03:49:43;31.65;;;19.40;;
77417;SDS011;66490;51.484;0.026;2023-04-24T03:52:26;33.03;;;18.67;;
77417;SDS011;66490;51.484;0.026;2023-04-24T03:55:10;30.80;;;18.40;;
77417;SDS011;66490;51.484;0.026;2023-04-24T03:57:56;32.03;;;19.98;;
77417;SDS011;66490;51.484;0.026;2023-04-24T04:00:40;35.03;;;19.83;;
77417;SDS011;66490;51.484;0.026;2023-04-24T04:03:24;37.15;;;19.70;;
77417;SDS011;66490;51.484;0.026;2023-04-24T04:06:08;35.60;;;20.08;;
77417;SDS011;66490;51.484;0.026;2023-04-24T04:08:54;35.03;;;19.67;;
77417;SDS011;66490;51.484;0.026;2023-04-24T04:11:38;35.95;;;20.02;;
77417;SDS011;66490;51.484;0.026;2023-04-24T04:14:22;33.60;;;19.43;;
77417;SDS011;66490;51.484;0.026;2023-04-24T04:17:07;33.60;;;19.60;;
77417;SDS011;66490;51.484;0.026;2023-04-24T04:19:51;32.85;;;20.05;;
77417;SDS011;66490;51.484;0.026;2023-04-24T04:22:35;31.02;;;17.70;;
77417;SDS011;66490;51.484;0.026;2023-04-24T04:25:19;32.70;;;18.38;;
77417;SDS011;66490;51.484;0.026;2023-04-24T04:28:03;33.67;;;17.87;;
77417;SDS011;66490;51.484;0.026;2023-04-24T04:30:47;27.67;;;15.30;;
77417;SDS011;66490;51.484;0.026;2023-04-24T04:33:31;30.45;;;15.52;;
77417;SDS011;66490;51.484;0.026;2023-04-24T04:36:15;22.23;;;11.63;;
77417;SDS011;66490;51.484;0.026;2023-04-24T04:39:00;20.58;;;11.27;;
77417;SDS011;66490;51.484;0.026;2023-04-24T04:41:46;21.80;;;9.03;;
77417;SDS011;66490;51.484;0.026;2023-04-24T04:44:32;16.73;;;7.78;;
77417;SDS011;66490;51.484;0.026;2023-04-24T04:47:16;16.88;;;8.43;;
77417;SDS011;66490;51.484;0.026;2023-04-24T04:50:02;13.30;;;7.22;;
77417;SDS011;66490;51.484;0.026;2023-04-24T04:52:47;18.35;;;9.02;;
77417;SDS011;66490;51.484;0.026;2023-04-24T04:55:31;19.17;;;7.47;;
77417;SDS011;66490;51.484;0.026;2023-04-24T04:58:15;17.60;;;8.70;;
77417;SDS011;66490;51.484;0.026;2023-04-24T05:00:59;19.25;;;8.98;;
77417;SDS011;66490;51.484;0.026;2023-04-24T05:03:43;16.10;;;9.90;;
77417;SDS011;66490;51.484;0.026;2023-04-24T05:06:27;21.48;;;13.52;;
77417;SDS011;66490;51.484;0.026;2023-04-24T05:09:11;28.10;;;14.97;;
77417;SDS011;66490;51.484;0.026;2023-04-24T05:11:56;25.02;;;15.32;;
77417;SDS011;66490;51.484;0.026;2023-04-24T05:14:40;27.40;;;16.25;;
77417;SDS011;66490;51.484;0.026;2023-04-24T05:17:27;28.63;;;17.38;;
77417;SDS011;66490;51.484;0.026;2023-04-24T05:20:11;24.75;;;15.70;;
77417;SDS011;66490;51.484;0.026;2023-04-24T05:22:55;26.43;;;14.87;;
77417;SDS011;66490;51.484;0.026;2023-04-24T05:25:40;22.63;;;13.60;;
77417;SDS011;66490;51.484;0.026;2023-04-24T05:28:25;25.27;;;13.90;;
77417;SDS011;66490;51.484;0.026;2023-04-24T05:31:11;22.38;;;12.10;;
77417;SDS011;66490;51.484;0.026;2023-04-24T05:33:55;21.33;;;12.23;;
77417;SDS011;66490;51.484;0.026;2023-04-24T05:36:40;18.97;;;10.30;;
77417;SDS011;66490;51.484;0.026;2023-04-24T05:39:24;19.17;;;9.55;;
77417;SDS011;66490;51.484;0.026;2023-04-24T05:42:09;19.17;;;10.13;;
77417;SDS011;66490;51.484;0.026;2023-04-24T05:44:53;19.27;;;11.10;;
77417;SDS011;66490;51.484;0.026;2023-04-24T05:47:38;17.48;;;9.32;;
77417;SDS011;66490;51.484;0.026;2023-04-24T05:50:22;19.17;;;9.07;;
77417;SDS011;66490;51.484;0.026;2023-04-24T05:53:06;16.60;;;6.85;;
77417;SDS011;66490;51.484;0.026;2023-04-24T05:55:51;9.65;;;4.53;;
77417;SDS011;66490;51.484;0.026;2023-04-24T05:58:34;9.38;;;3.15;;
77417;SDS011;66490;51.484;0.026;2023-04-24T06:01:19;9.32;;;3.53;;
77417;SDS011;66490;51.484;0.026;2023-04-24T06:04:03;8.77;;;2.77;;
77417;SDS011;66490;51.484;0.026;2023-04-24T06:06:47;12.50;;;2.97;;
77417;SDS011;66490;51.484;0.026;2023-04-24T06:09:34;8.10;;;2.88;;
77417;SDS011;66490;51.484;0.026;2023-04-24T06:12:18;10.88;;;2.67;;
77417;SDS011;66490;51.484;0.026;2023-04-24T06:15:03;12.35;;;3.00;;
77417;SDS011;66490;51.484;0.026;2023-04-24T06:17:47;8.90;;;2.70;;
77417;SDS011;66490;51.484;0.026;2023-04-24T06:20:31;11.90;;;3.05;;
77417;SDS011;66490;51.484;0.026;2023-04-24T06:23:15;10.38;;;3.55;;
77417;SDS011;66490;51.484;0.026;2023-04-24T06:26:02;11.63;;;2.95;;
77417;SDS011;66490;51.484;0.026;2023-04-24T06:28:46;8.35;;;2.53;;
77417;SDS011;66490;51.484;0.026;2023-04-24T06:31:30;8.60;;;2.77;;
77417;SDS011;66490;51.484;0.026;2023-04-24T06:34:18;8.77;;;3.45;;
77417;SDS011;66490;51.484;0.026;2023-04-24T06:37:02;10.70;;;3.42;;
77417;SDS011;66490;51.484;0.026;2023-04-24T06:39:46;13.50;;;3.38;;
77417;SDS011;66490;51.484;0.026;2023-04-24T06:42:30;9.60;;;3.20;;
77417;SDS011;66490;51.484;0.026;2023-04-24T06:45:14;10.50;;;3.00;;
77417;SDS011;66490;51.484;0.026;2023-04-24T06:47:58;9.85;;;2.75;;
77417;SDS011;66490;51.484;0.026;2023-04-24T06:50:45;9.70;;;2.25;;
77417;SDS011;66490;51.484;0.026;2023-04-24T06:53:30;8.48;;;2.35;;
77417;SDS011;66490;51.484;0.026;2023-04-24T06:56:17;5.22;;;2.17;;
77417;SDS011;66490;51.484;0.026;2023-04-24T06:59:01;9.63;;;2.30;;
77417;SDS011;66490;51.484;0.026;2023-04-24T07:01:45;8.25;;;3.50;;
77417;SDS011;66490;51.484;0.026;2023-04-24T07:04:29;9.73;;;2.72;;
77417;SDS011;66490;51.484;0.026;2023-04-24T07:07:14;8.50;;;2.42;;
77417;SDS011;66490;51.484;0.026;2023-04-24T07:10:01;8.20;;;2.78;;
77417;SDS011;66490;51.484;0.026;2023-04-24T07:12:45;9.53;;;2.27;;
77417;SDS011;66490;51.484;0.026;2023-04-24T07:15:30;12.13;;;3.42;;
77417;SDS011;66490;51.484;0.026;2023-04-24T07:18:16;12.38;;;2.67;;
77417;SDS011;66490;51.484;0.026;2023-04-24T07:21:00;6.13;;;2.08;;
77417;SDS011;66490;51.484;0.026;2023-04-24T07:23:44;6.40;;;2.58;;
77417;SDS011;66490;51.484;0.026;2023-04-24T07:26:29;7.90;;;2.07;;
77417;SDS011;66490;51.484;0.026;2023-04-24T07:29:19;10.20;;;1.92;;
77417;SDS011;66490;51.484;0.026;2023-04-24T07:32:04;12.95;;;2.10;;
77417;SDS011;66490;51.484;0.026;2023-04-24T07:34:49;12.25;;;1.90;;
77417;SDS011;66490;51.484;0.026;2023-04-24T07:37:33;7.30;;;2.38;;
77417;SDS011;66490;51.484;0.026;2023-04-24T07:40:18;8.97;;;1.87;;
77417;SDS011;66490;51.484;0.026;2023-04-24T07:43:02;10.68;;;1.80;;
77417;SDS011;66490;51.484;0.026;2023-04-24T07:45:46;7.90;;;2.70;;
77417;SDS011;66490;51.484;0.026;2023-04-24T07:48:30;7.20;;;1.67;;
77417;SDS011;66490;51.484;0.026;2023-04-24T07:51:15;6.68;;;2.28;;
77417;SDS011;66490;51.484;0.026;2023-04-24T07:53:59;10.50;;;2.60;;
77417;SDS011;66490;51.484;0.026;2023-04-24T07:56:43;10.45;;;2.70;;
77417;SDS011;66490;51.484;0.026;2023-04-24T07:59:30;10.65;;;2.88;;
77417;SDS011;66490;51.484;0.026;2023-04-24T08:02:14;8.85;;;2.50;;
77417;SDS011;66490;51.484;0.026;2023-04-24T08:04:58;13.23;;;4.35;;
77417;SDS011;66490;51.484;0.026;2023-04-24T08:07:42;10.67;;;3.20;;
77417;SDS011;66490;51.484;0.026;2023-04-24T08:10:26;9.77;;;2.30;;
77417;SDS011;66490;51.484;0.026;2023-04-24T08:13:10;8.93;;;2.80;;
77417;SDS011;66490;51.484;0.026;2023-04-24T08:15:56;7.43;;;2.72;;
77417;SDS011;66490;51.484;0.026;2023-04-24T08:18:40;7.85;;;2.90;;
77417;SDS011;66490;51.484;0.026;2023-04-24T08:21:24;7.33;;;2.90;;
77417;SDS011;66490;51.484;0.026;2023-04-24T08:24:10;8.57;;;2.95;;
77417;SDS011;66490;51.484;0.026;2023-04-24T08:26:54;5.03;;;2.13;;
77417;SDS011;66490;51.484;0.026;2023-04-24T08:29:40;6.68;;;2.38;;
77417;SDS011;66490;51.484;0.026;2023-04-24T08:32:27;8.98;;;2.47;;
77417;SDS011;66490;51.484;0.026;2023-04-24T08:35:14;7.70;;;2.23;;
77417;SDS011;66490;51.484;0.026;2023-04-24T08:37:58;7.95;;;2.03;;
77417;SDS011;66490;51.484;0.026;2023-04-24T08:40:42;9.15;;;3.15;;
77417;SDS011;66490;51.484;0.026;2023-04-24T08:43:29;9.35;;;2.78;;
77417;SDS011;66490;51.484;0.026;2023-04-24T08:46:15;8.00;;;2.53;;
77417;SDS011;66490;51.484;0.026;2023-04-24T08:49:03;7.47;;;2.40;;
77417;SDS011;66490;51.484;0.026;2023-04-24T08:51:51;7.25;;;3.63;;
77417;SDS011;66490;51.484;0.026;2023-04-24T08:54:36;8.70;;;3.50;;
77417;SDS011;66490;51.484;0.026;2023-04-24T08:57:20;10.40;;;3.30;;
77417;SDS011;66490;51.484;0.026;2023-04-24T09:00:11;8.35;;;3.25;;
77417;SDS011;66490;51.484;0.026;2023-04-24T09:02:59;6.73;;;2.47;;
77417;SDS011;66490;51.484;0.026;2023-04-24T09:05:49;9.18;;;2.17;;
77417;SDS011;66490;51.484;0.026;2023-04-24T09:08:34;7.13;;;3.30;;
77417;SDS011;66490;51.484;0.026;2023-04-24T09:11:20;9.23;;;2.90;;
77417;SDS011;66490;51.484;0.026;2023-04-24T09:14:07;8.05;;;2.97;;
77417;SDS011;66490;51.484;0.026;2023-04-24T09:16:58;11.87;;;3.20;;
77417;SDS011;66490;51.484;0.026;2023-04-24T09:19:42;10.75;;;3.10;;
77417;SDS011;66490;51.484;0.026;2023-04-24T09:22:28;6.97;;;2.78;;
77417;SDS011;66490;51.484;0.026;2023-04-24T09:25:19;14.05;;;3.00;;
77417;SDS011;66490;51.484;0.026;2023-04-24T09:28:04;8.70;;;2.67;;
77417;SDS011;66490;51.484;0.026;2023-04-24T09:31:01;8.07;;;2.40;;
77417;SDS011;66490;51.484;0.026;2023-04-24T09:33:58;7.38;;;2.65;;
77417;SDS011;66490;51.484;0.026;2023-04-24T09:36:43;8.30;;;2.97;;
77417;SDS011;66490;51.484;0.026;2023-04-24T09:39:27;11.43;;;3.15;;
77417;SDS011;66490;51.484;0.026;2023-04-24T09:42:11;10.45;;;3.58;;
77417;SDS011;66490;51.484;0.026;2023-04-24T09:44:55;12.40;;;3.70;;
77417;SDS011;66490;51.484;0.026;2023-04-24T09:47:46;11.50;;;4.53;;
77417;SDS011;66490;51.484;0.026;2023-04-24T09:50:42;7.53;;;3.08;;
77417;SDS011;66490;51.484;0.026;2023-04-24T09:53:30;6.80;;;3.03;;
77417;SDS011;66490;51.484;0.026;2023-04-24T09:56:23;10.60;;;4.13;;
77417;SDS011;66490;51.484;0.026;2023-04-24T09:59:09;10.93;;;3.33;;
77417;SDS011;66490;51.484;0.026;2023-04-24T10:01:54;8.30;;;3.10;;
77417;SDS011;66490;51.484;0.026;2023-04-24T10:04:39;9.25;;;3.90;;
77417;SDS011;66490;51.484;0.026;2023-04-24T10:07:25;7.72;;;3.25;;
77417;SDS011;66490;51.484;0.026;2023-04-24T10:10:09;10.48;;;4.22;;
77417;SDS011;66490;51.484;0.026;2023-04-24T10:12:54;11.33;;;4.03;;
77417;SDS011;66490;51.484;0.026;2023-04-24T10:15:39;8.50;;;3.58;;
77417;SDS011;66490;51.484;0.026;2023-04-24T10:18:24;10.05;;;4.20;;
77417;SDS011;66490;51.484;0.026;2023-04-24T10:21:08;10.55;;;4.07;;
77417;SDS011;66490;51.484;0.026;2023-04-24T10:23:53;12.10;;;4.07;;
77417;SDS011;66490;51.484;0.026;2023-04-24T10:26:37;11.60;;;3.80;;
77417;SDS011;66490;51.484;0.026;2023-04-24T10:29:21;10.95;;;4.95;;
77417;SDS011;66490;51.484;0.026;2023-04-24T10:32:06;9.50;;;4.32;;
77417;SDS011;66490;51.484;0.026;2023-04-24T10:34:50;9.73;;;4.10;;
77417;SDS011;66490;51.484;0.026;2023-04-24T10:37:45;11.93;;;4.75;;
77417;SDS011;66490;51.484;0.026;2023-04-24T10:40:30;8.83;;;2.93;;
77417;SDS011;66490;51.484;0.026;2023-04-24T10:43:16;13.88;;;2.95;;
77417;SDS011;66490;51.484;0.026;2023-04-24T10:46:03;9.05;;;3.60;;
77417;SDS011;66490;51.484;0.026;2023-04-24T10:48:54;10.65;;;2.67;;
77417;SDS011;66490;51.484;0.026;2023-04-24T10:51:49;10.10;;;3.67;;
77417;SDS011;66490;51.484;0.026;2023-04-24T10:57:28;10.23;;;2.47;;
77417;SDS011;66490;51.484;0.026;2023-04-24T11:00:20;9.85;;;3.60;;
77417;SDS011;66490;51.484;0.026;2023-04-24T11:03:06;11.20;;;2.92;;
77417;SDS011;66490;51.484;0.026;2023-04-24T11:06:00;10.30;;;3.65;;
77417;SDS011;66490;51.484;0.026;2023-04-24T11:08:45;9.20;;;3.40;;
77417;SDS011;66490;51.484;0.026;2023-04-24T11:11:36;11.15;;;3.58;;
77417;SDS011;66490;51.484;0.026;2023-04-24T11:14:21;9.73;;;3.42;;
77417;SDS011;66490;51.484;0.026;2023-04-24T11:17:05;8.00;;;3.13;;
77417;SDS011;66490;51.484;0.026;2023-04-24T11:19:50;12.63;;;3.70;;
77417;SDS011;66490;51.484;0.026;2023-04-24T11:22:35;10.47;;;3.20;;
77417;SDS011;66490;51.484;0.026;2023-04-24T11:25:19;6.70;;;2.80;;
77417;SDS011;66490;51.484;0.026;2023-04-24T11:28:06;11.63;;;4.55;;
77417;SDS011;66490;51.484;0.026;2023-04-24T11:30:50;9.52;;;3.47;;
77417;SDS011;66490;51.484;0.026;2023-04-24T11:33:36;9.25;;;4.03;;
77417;SDS011;66490;51.484;0.026;2023-04-24T11:36:20;11.47;;;3.40;;
77417;SDS011;66490;51.484;0.026;2023-04-24T11:39:04;8.60;;;2.95;;
77417;SDS011;66490;51.484;0.026;2023-04-24T11:41:48;8.35;;;2.90;;
77417;SDS011;66490;51.484;0.026;2023-04-24T11:44:34;9.50;;;3.42;;
77417;SDS011;66490;51.484;0.026;2023-04-24T11:47:27;10.82;;;3.53;;
77417;SDS011;66490;51.484;0.026;2023-04-24T11:50:12;8.80;;;2.80;;
77417;SDS011;66490;51.484;0.026;2023-04-24T11:52:57;8.70;;;3.15;;
77417;SDS011;66490;51.484;0.026;2023-04-24T11:55:51;9.00;;;3.50;;
77417;SDS011;66490;51.484;0.026;2023-04-24T11:58:38;8.15;;;3.20;;
77417;SDS011;66490;51.484;0.026;2023-04-24T12:01:22;7.75;;;3.70;;
77417;SDS011;66490;51.484;0.026;2023-04-24T12:04:07;9.27;;;3.40;;
77417;SDS011;66490;51.484;0.026;2023-04-24T12:07:00;8.05;;;3.67;;
77417;SDS011;66490;51.484;0.026;2023-04-24T12:09:54;10.93;;;3.90;;
77417;SDS011;66490;51.484;0.026;2023-04-24T12:12:39;9.23;;;3.55;;
77417;SDS011;66490;51.484;0.026;2023-04-24T12:15:23;8.40;;;3.33;;
77417;SDS011;66490;51.484;0.026;2023-04-24T12:18:07;7.07;;;3.30;;
77417;SDS011;66490;51.484;0.026;2023-04-24T12:20:55;7.43;;;3.67;;
77417;SDS011;66490;51.484;0.026;2023-04-24T12:23:39;8.00;;;4.18;;
77417;SDS011;66490;51.484;0.026;2023-04-24T12:26:28;7.97;;;3.58;;
77417;SDS011;66490;51.484;0.026;2023-04-24T12:29:19;5.85;;;3.05;;
77417;SDS011;66490;51.484;0.026;2023-04-24T12:32:15;9.10;;;4.07;;
77417;SDS011;66490;51.484;0.026;2023-04-24T12:35:03;8.95;;;3.08;;
77417;SDS011;66490;51.484;0.026;2023-04-24T12:37:50;8.20;;;3.20;;
77417;SDS011;66490;51.484;0.026;2023-04-24T12:41:00;6.78;;;3.10;;
77417;SDS011;66490;51.484;0.026;2023-04-24T12:43:51;8.30;;;4.05;;
77417;SDS011;66490;51.484;0.026;2023-04-24T12:46:41;9.90;;;3.87;;
77417;SDS011;66490;51.484;0.026;2023-04-24T12:49:29;8.75;;;2.88;;
77417;SDS011;66490;51.484;0.026;2023-04-24T12:52:20;9.20;;;3.58;;
77417;SDS011;66490;51.484;0.026;2023-04-24T12:55:05;8.80;;;3.33;;
77417;SDS011;66490;51.484;0.026;2023-04-24T12:57:51;7.45;;;3.17;;
77417;SDS011;66490;51.484;0.026;2023-04-24T13:00:38;7.93;;;2.63;;
77417;SDS011;66490;51.484;0.026;2023-04-24T13:03:22;5.82;;;2.25;;
77417;SDS011;66490;51.484;0.026;2023-04-24T13:06:08;8.35;;;2.17;;
77417;SDS011;66490;51.484;0.026;2023-04-24T13:08:52;6.95;;;3.00;;
77417;SDS011;66490;51.484;0.026;2023-04-24T13:11:36;5.97;;;2.70;;
77417;SDS011;66490;51.484;0.026;2023-04-24T13:14:26;7.20;;;3.47;;
77417;SDS011;66490;51.484;0.026;2023-04-24T13:17:09;7.95;;;3.20;;
77417;SDS011;66490;51.484;0.026;2023-04-24T13:19:55;8.27;;;3.05;;
77417;SDS011;66490;51.484;0.026;2023-04-24T13:22:42;8.15;;;2.90;;
77417;SDS011;66490;51.484;0.026;2023-04-24T13:25:34;6.00;;;3.13;;
77417;SDS011;66490;51.484;0.026;2023-04-24T13:28:18;6.33;;;3.03;;
77417;SDS011;66490;51.484;0.026;2023-04-24T13:31:02;8.05;;;3.33;;
77417;SDS011;66490;51.484;0.026;2023-04-24T13:33:46;10.02;;;3.63;;
77417;SDS011;66490;51.484;0.026;2023-04-24T13:36:30;7.05;;;3.10;;
77417;SDS011;66490;51.484;0.026;2023-04-24T13:39:15;6.88;;;3.63;;
77417;SDS011;66490;51.484;0.026;2023-04-24T13:42:00;8.13;;;3.13;;
77417;SDS011;66490;51.484;0.026;2023-04-24T13:44:44;8.45;;;3.25;;
77417;SDS011;66490;51.484;0.026;2023-04-24T13:47:31;7.78;;;3.53;;
77417;SDS011;66490;51.484;0.026;2023-04-24T13:50:15;6.95;;;3.00;;
77417;SDS011;66490;51.484;0.026;2023-04-24T13:53:02;10.40;;;4.22;;
77417;SDS011;66490;51.484;0.026;2023-04-24T13:55:46;7.23;;;3.23;;
77417;SDS011;66490;51.484;0.026;2023-04-24T13:58:30;6.18;;;3.25;;
77417;SDS011;66490;51.484;0.026;2023-04-24T14:01:14;6.85;;;2.90;;
77417;SDS011;66490;51.484;0.026;2023-04-24T14:04:00;7.57;;;3.05;;
77417;SDS011;66490;51.484;0.026;2023-04-24T14:06:44;7.47;;;3.30;;
77417;SDS011;66490;51.484;0.026;2023-04-24T14:09:28;6.90;;;2.87;;
77417;SDS011;66490;51.484;0.026;2023-04-24T14:12:13;6.25;;;2.70;;
77417;SDS011;66490;51.484;0.026;2023-04-24T14:14:57;6.60;;;3.03;;
77417;SDS011;66490;51.484;0.026;2023-04-24T14:17:41;7.60;;;3.10;;
77417;SDS011;66490;51.484;0.026;2023-04-24T14:20:25;5.22;;;2.90;;
77417;SDS011;66490;51.484;0.026;2023-04-24T14:23:12;7.20;;;3.33;;
77417;SDS011;66490;51.484;0.026;2023-04-24T14:25:59;6.72;;;3.10;;
77417;SDS011;66490;51.484;0.026;2023-04-24T14:28:43;6.72;;;3.80;;
77417;SDS011;66490;51.484;0.026;2023-04-24T14:31:27;6.03;;;2.97;;
77417;SDS011;66490;51.484;0.026;2023-04-24T14:34:11;7.85;;;3.70;;
77417;SDS011;66490;51.484;0.026;2023-04-24T14:36:54;8.77;;;3.03;;
77417;SDS011;66490;51.484;0.026;2023-04-24T14:39:38;5.85;;;2.58;;
77417;SDS011;66490;51.484;0.026;2023-04-24T14:42:22;6.30;;;3.00;;
77417;SDS011;66490;51.484;0.026;2023-04-24T14:45:06;5.55;;;2.20;;
77417;SDS011;66490;51.484;0.026;2023-04-24T14:47:55;6.13;;;3.03;;
77417;SDS011;66490;51.484;0.026;2023-04-24T14:50:39;7.43;;;1.93;;
77417;SDS011;66490;51.484;0.026;2023-04-24T14:53:23;6.75;;;2.78;;
77417;SDS011;66490;51.484;0.026;2023-04-24T14:56:08;6.43;;;2.00;;
77417;SDS011;66490;51.484;0.026;2023-04-24T14:58:55;4.80;;;1.85;;
77417;SDS011;66490;51.484;0.026;2023-04-24T15:01:39;7.22;;;2.67;;
77417;SDS011;66490;51.484;0.026;2023-04-24T15:04:26;5.80;;;1.93;;
77417;SDS011;66490;51.484;0.026;2023-04-24T15:07:10;10.10;;;2.85;;
77417;SDS011;66490;51.484;0.026;2023-04-24T15:09:54;4.93;;;2.20;;
77417;SDS011;66490;51.484;0.026;2023-04-24T15:12:38;6.78;;;2.25;;
77417;SDS011;66490;51.484;0.026;2023-04-24T15:15:22;6.15;;;2.20;;
77417;SDS011;66490;51.484;0.026;2023-04-24T15:18:07;5.57;;;1.83;;
77417;SDS011;66490;51.484;0.026;2023-04-24T15:20:52;9.50;;;2.65;;
77417;SDS011;66490;51.484;0.026;2023-04-24T15:23:36;6.22;;;2.50;;
77417;SDS011;66490;51.484;0.026;2023-04-24T15:26:23;3.80;;;1.85;;
77417;SDS011;66490;51.484;0.026;2023-04-24T15:29:08;5.82;;;2.50;;
77417;SDS011;66490;51.484;0.026;2023-04-24T15:31:52;5.57;;;1.80;;
77417;SDS011;66490;51.484;0.026;2023-04-24T15:34:36;6.20;;;2.20;;
77417;SDS011;66490;51.484;0.026;2023-04-24T15:37:20;4.25;;;1.95;;
77417;SDS011;66490;51.484;0.026;2023-04-24T15:40:04;4.78;;;2.35;;
77417;SDS011;66490;51.484;0.026;2023-04-24T15:42:50;5.55;;;2.67;;
77417;SDS011;66490;51.484;0.026;2023-04-24T15:45:34;5.73;;;2.73;;
77417;SDS011;66490;51.484;0.026;2023-04-24T15:48:18;5.57;;;2.88;;
77417;SDS011;66490;51.484;0.026;2023-04-24T15:51:02;6.72;;;3.80;;
77417;SDS011;66490;51.484;0.026;2023-04-24T15:53:46;8.30;;;4.32;;
77417;SDS011;66490;51.484;0.026;2023-04-24T15:56:31;6.50;;;4.13;;
77417;SDS011;66490;51.484;0.026;2023-04-24T15:59:18;7.83;;;4.43;;
77417;SDS011;66490;51.484;0.026;2023-04-24T16:02:34;7.57;;;3.78;;
77417;SDS011;66490;51.484;0.026;2023-04-24T16:05:19;8.40;;;4.10;;
77417;SDS011;66490;51.484;0.026;2023-04-24T16:08:03;7.13;;;4.40;;
77417;SDS011;66490;51.484;0.026;2023-04-24T16:10:47;7.47;;;5.38;;
77417;SDS011;66490;51.484;0.026;2023-04-24T16:13:31;10.60;;;5.60;;
77417;SDS011;66490;51.484;0.026;2023-04-24T16:16:17;9.23;;;5.80;;
77417;SDS011;66490;51.484;0.026;2023-04-24T16:19:00;9.85;;;5.97;;
77417;SDS011;66490;51.484;0.026;2023-04-24T16:21:44;10.32;;;6.05;;
77417;SDS011;66490;51.484;0.026;2023-04-24T16:24:28;10.07;;;6.75;;
77417;SDS011;66490;51.484;0.026;2023-04-24T16:27:13;9.40;;;5.97;;